Weather at Brussels Airport

Public forecast

Using degrees Celsius for public forecast. Weather courtesy of forecast.io.

Current aviation weather report (METAR) for Brussels Airport

Retrieved 2021/03/01 17:20 UTC (2 hours ago):

EBBR 011720Z 05007KT CAVOK 08/04 Q1030 NOSIG

Aviation forecast (TAF) for Brussels Airport

Retrieved 2021/03/01 18:28 UTC (24 minutes ago):

TAF EBBR 011700Z 0118/0224 08005KT CAVOK TEMPO 0203/0207 3000 BR